createdAt,value
2023-03-10T00:00:30.694Z,61.30
2023-03-10T00:02:57.953Z,60.50
2023-03-10T00:05:25.197Z,63.57
2023-03-10T00:07:53.159Z,64.67
2023-03-10T00:10:20.398Z,64.47
2023-03-10T00:12:47.669Z,66.43
2023-03-10T00:15:14.979Z,63.80
2023-03-10T00:17:42.249Z,62.60
2023-03-10T00:20:12.025Z,69.47
2023-03-10T00:22:41.959Z,66.57
2023-03-10T00:25:10.075Z,66.57
2023-03-10T00:27:37.312Z,64.10
2023-03-10T00:30:04.996Z,70.80
2023-03-10T00:32:32.493Z,70.63
2023-03-10T00:34:59.712Z,62.17
2023-03-10T00:37:27.043Z,70.53
2023-03-10T00:39:55.609Z,73.63
2023-03-10T00:42:23.473Z,73.13
2023-03-10T00:44:50.733Z,65.37
2023-03-10T00:47:18.006Z,64.63
2023-03-10T00:49:45.236Z,71.80
2023-03-10T00:52:12.443Z,72.23
2023-03-10T00:54:41.345Z,69.47
2023-03-10T00:57:09.135Z,68.47
2023-03-10T00:59:49.362Z,70.40
2023-03-10T01:02:17.585Z,73.67
2023-03-10T01:04:44.898Z,73.27
2023-03-10T01:07:12.173Z,72.23
2023-03-10T01:09:39.368Z,69.23
2023-03-10T01:12:06.742Z,69.50
2023-03-10T01:14:33.985Z,68.70
2023-03-10T01:17:01.417Z,72.27
2023-03-10T01:19:28.678Z,68.57
2023-03-10T01:21:55.878Z,71.37
2023-03-10T01:24:23.205Z,60.27
2023-03-10T01:26:50.597Z,70.57
2023-03-10T01:29:17.865Z,63.10
2023-03-10T01:31:45.155Z,70.63
2023-03-10T01:34:12.612Z,65.73
2023-03-10T01:36:41.701Z,71.43
2023-03-10T01:39:09.012Z,67.83
2023-03-10T01:41:39.224Z,74.10
2023-03-10T01:44:06.763Z,66.03
2023-03-10T01:46:40.406Z,73.83
2023-03-10T01:49:34.223Z,69.47
2023-03-10T01:52:21.707Z,75.00
2023-03-10T01:54:50.118Z,65.07
2023-03-10T01:57:19.609Z,72.10
2023-03-10T01:59:47.625Z,65.73
2023-03-10T02:02:14.959Z,72.67
2023-03-10T02:04:48.561Z,72.77
2023-03-10T02:07:17.931Z,71.57
2023-03-10T02:09:46.819Z,66.57
2023-03-10T02:12:15.285Z,69.83
2023-03-10T02:14:44.503Z,62.17
2023-03-10T02:17:13.956Z,64.30
2023-03-10T02:19:54.869Z,67.87
2023-03-10T02:22:22.725Z,61.60
2023-03-10T02:25:00.903Z,63.50
2023-03-10T02:27:31.002Z,61.50
2023-03-10T02:30:07.554Z,66.10
2023-03-10T02:32:36.084Z,63.60
2023-03-10T02:35:04.581Z,65.27
2023-03-10T02:37:33.306Z,68.50
2023-03-10T02:40:01.047Z,65.73
2023-03-10T02:42:32.295Z,57.87
2023-03-10T02:44:59.601Z,64.93
2023-03-10T02:47:27.098Z,66.33
2023-03-10T02:49:54.271Z,62.73
2023-03-10T02:52:35.168Z,68.63
2023-03-10T02:55:02.447Z,63.47
2023-03-10T02:57:29.926Z,61.40
2023-03-10T02:59:57.143Z,69.37
2023-03-10T03:02:24.646Z,66.23
2023-03-10T03:04:51.892Z,60.10
2023-03-10T03:07:19.110Z,66.53
2023-03-10T03:09:46.390Z,63.33
2023-03-10T03:12:13.683Z,63.33
2023-03-10T03:14:40.928Z,65.87
2023-03-10T03:17:08.250Z,68.83
2023-03-10T03:19:35.433Z,59.50
2023-03-10T03:22:02.628Z,64.40
2023-03-10T03:24:32.087Z,67.93
2023-03-10T03:26:59.929Z,70.07
2023-03-10T03:29:27.189Z,65.00
2023-03-10T03:31:54.475Z,66.53
2023-03-10T03:34:22.025Z,67.70
2023-03-10T03:36:49.291Z,69.10
2023-03-10T03:39:17.614Z,75.80
2023-03-10T03:41:44.987Z,77.00
2023-03-10T03:44:12.274Z,72.20
2023-03-10T03:46:39.474Z,68.63
2023-03-10T03:49:06.706Z,73.73
2023-03-10T03:51:36.158Z,71.03
2023-03-10T03:54:03.836Z,71.07
2023-03-10T03:56:31.046Z,74.23
2023-03-10T03:58:58.876Z,72.07
2023-03-10T04:01:26.281Z,71.60
2023-03-10T04:03:53.618Z,74.13
2023-03-10T04:06:23.049Z,75.23
2023-03-10T04:08:50.810Z,81.23
2023-03-10T04:11:18.031Z,73.83
2023-03-10T04:13:45.244Z,83.60
2023-03-10T04:16:12.688Z,72.93
2023-03-10T04:18:39.962Z,77.17
2023-03-10T04:21:07.216Z,81.73
2023-03-10T04:23:34.458Z,84.77
2023-03-10T04:26:01.693Z,79.00
2023-03-10T04:28:29.163Z,79.93
2023-03-10T04:30:56.629Z,73.73
2023-03-10T04:33:23.927Z,84.80
2023-03-10T04:35:51.672Z,82.17
2023-03-10T04:38:19.099Z,84.47
2023-03-10T04:40:46.282Z,82.27
2023-03-10T04:43:13.602Z,85.17
2023-03-10T04:45:40.858Z,90.87
2023-03-10T04:48:08.796Z,91.40
2023-03-10T04:50:36.034Z,85.43
2023-03-10T04:53:03.217Z,83.37
2023-03-10T04:55:30.463Z,89.63
2023-03-10T04:57:57.661Z,92.47
2023-03-10T05:00:24.972Z,95.23
2023-03-10T05:02:52.204Z,86.63
2023-03-10T05:05:19.642Z,83.23
2023-03-10T05:07:47.016Z,82.37
2023-03-10T05:10:14.545Z,96.03
2023-03-10T05:12:42.473Z,78.90
2023-03-10T05:15:10.310Z,90.87
2023-03-10T05:17:37.615Z,82.77
2023-03-10T05:20:05.273Z,89.07
2023-03-10T05:22:32.466Z,92.10
2023-03-10T05:24:59.696Z,74.57
2023-03-10T05:27:27.043Z,85.70
2023-03-10T05:29:54.213Z,76.90
2023-03-10T05:32:21.513Z,81.47
2023-03-10T05:34:48.748Z,81.00
2023-03-10T05:37:16.130Z,84.93
2023-03-10T05:39:43.944Z,86.43
2023-03-10T05:42:12.466Z,86.93
2023-03-10T05:44:40.725Z,83.47
2023-03-10T05:47:08.105Z,77.63
2023-03-10T05:49:37.466Z,81.90
2023-03-10T05:52:06.075Z,85.83
2023-03-10T06:01:33.775Z,75.87
2023-03-10T06:04:01.047Z,84.27
2023-03-10T06:06:28.372Z,85.03
2023-03-10T06:08:55.729Z,86.23
2023-03-10T06:11:23.246Z,83.77
2023-03-10T06:13:50.933Z,89.03
2023-03-10T06:16:18.506Z,88.23
2023-03-10T06:18:45.746Z,79.70
2023-03-10T06:21:14.962Z,90.90
2023-03-10T06:23:42.406Z,82.43
2023-03-10T06:26:12.881Z,85.17
2023-03-10T06:28:41.150Z,84.70
2023-03-10T06:31:10.186Z,96.73
2023-03-10T06:33:38.285Z,91.90
2023-03-10T06:36:05.769Z,90.53
2023-03-10T06:38:33.089Z,89.63
2023-03-10T06:41:00.309Z,91.23
2023-03-10T06:43:27.594Z,90.90
2023-03-10T06:45:55.033Z,88.83
2023-03-10T06:48:22.279Z,87.57
2023-03-10T06:50:50.069Z,89.33
2023-03-10T06:53:19.109Z,87.10
2023-03-10T06:55:46.727Z,90.60
2023-03-10T06:58:13.913Z,84.70
2023-03-10T07:00:41.465Z,88.83
2023-03-10T07:03:11.539Z,84.20
2023-03-10T07:05:38.798Z,89.67
2023-03-10T07:08:06.217Z,91.80
2023-03-10T07:10:33.413Z,85.10
2023-03-10T07:13:00.774Z,86.37
2023-03-10T07:15:27.957Z,78.57
2023-03-10T07:17:56.368Z,78.03
2023-03-10T07:20:24.511Z,85.13
2023-03-10T07:22:51.962Z,88.27
2023-03-10T07:25:19.544Z,77.07
2023-03-10T07:27:46.907Z,77.97
2023-03-10T07:30:14.726Z,71.80
2023-03-10T07:32:41.993Z,70.30
2023-03-10T07:35:09.994Z,77.07
2023-03-10T07:37:41.133Z,73.23
2023-03-10T07:40:09.296Z,75.67
2023-03-10T07:42:36.532Z,74.37
2023-03-10T07:45:06.125Z,69.83
2023-03-10T07:47:33.361Z,76.60
2023-03-10T07:50:00.598Z,68.47
2023-03-10T07:52:29.237Z,74.17
2023-03-10T07:54:56.469Z,77.97
2023-03-10T07:57:23.680Z,65.80
2023-03-10T07:59:50.931Z,68.57
2023-03-10T08:02:18.126Z,63.10
2023-03-10T08:04:45.492Z,51.93
2023-03-10T08:07:13.088Z,56.00
2023-03-10T08:09:41.488Z,61.53
2023-03-10T08:12:08.935Z,52.23
2023-03-10T08:14:36.603Z,40.37
2023-03-10T08:17:04.037Z,40.87
2023-03-10T08:19:31.260Z,34.83
2023-03-10T08:21:58.705Z,39.33
2023-03-10T08:24:26.565Z,36.20
2023-03-10T08:26:53.850Z,40.10
2023-03-10T08:29:21.061Z,33.57
2023-03-10T08:31:48.740Z,31.90
2023-03-10T08:34:16.559Z,34.93
2023-03-10T08:36:44.313Z,26.03
2023-03-10T08:39:12.565Z,36.20
2023-03-10T08:41:46.107Z,28.47
2023-03-10T08:44:15.585Z,32.93
2023-03-10T08:46:46.401Z,31.47
2023-03-10T08:49:14.975Z,28.60
2023-03-10T08:51:42.686Z,31.87
2023-03-10T08:54:09.981Z,25.73
2023-03-10T08:56:37.179Z,27.10
2023-03-10T08:59:04.981Z,27.83
2023-03-10T09:01:33.971Z,26.43
2023-03-10T09:04:01.698Z,32.80
2023-03-10T09:06:29.518Z,22.40
2023-03-10T09:08:56.862Z,30.63
2023-03-10T09:11:25.675Z,21.13
2023-03-10T09:13:53.494Z,25.63
2023-03-10T09:16:20.721Z,25.50
2023-03-10T09:18:49.252Z,21.47
2023-03-10T09:21:17.615Z,20.60
2023-03-10T09:23:45.970Z,20.23
2023-03-10T09:26:13.199Z,24.03
2023-03-10T09:28:40.559Z,21.63
2023-03-10T09:31:08.721Z,25.40
2023-03-10T09:33:36.200Z,17.77
2023-03-10T09:36:07.175Z,18.97
2023-03-10T09:38:35.222Z,17.27
2023-03-10T09:41:11.695Z,23.67
2023-03-10T09:43:45.341Z,17.03
2023-03-10T09:46:18.665Z,17.87
2023-03-10T09:49:04.604Z,16.30
2023-03-10T09:51:31.801Z,17.23
2023-03-10T09:54:07.746Z,13.27
2023-03-10T09:56:36.177Z,16.20
2023-03-10T09:59:07.450Z,14.73
2023-03-10T10:01:35.317Z,14.87
2023-03-10T10:04:08.777Z,15.70
2023-03-10T10:06:38.253Z,18.07
2023-03-10T10:09:09.360Z,15.93
2023-03-10T10:11:37.069Z,13.90
2023-03-10T10:14:22.395Z,13.20
2023-03-10T10:17:01.331Z,12.57
2023-03-10T10:19:29.576Z,15.77
2023-03-10T10:21:56.942Z,16.67
2023-03-10T10:24:24.331Z,11.57
2023-03-10T10:26:51.694Z,13.47
2023-03-10T10:29:18.939Z,9.17
2023-03-10T10:32:05.054Z,13.67
2023-03-10T10:34:32.739Z,12.57
2023-03-10T10:37:00.389Z,12.93
2023-03-10T10:39:41.576Z,12.00
2023-03-10T10:42:18.008Z,8.33
2023-03-10T10:44:45.757Z,10.93
2023-03-10T10:47:33.221Z,11.97
2023-03-10T10:50:20.734Z,8.07
2023-03-10T10:52:50.781Z,10.23
2023-03-10T10:55:29.295Z,9.07
2023-03-10T10:57:59.283Z,11.67
2023-03-10T11:00:28.320Z,7.23
2023-03-10T11:02:56.120Z,10.50
2023-03-10T11:05:32.364Z,7.27
2023-03-10T11:08:17.816Z,9.30
2023-03-10T11:10:46.710Z,9.50
2023-03-10T11:13:14.224Z,10.87
2023-03-10T11:15:52.196Z,7.27
2023-03-10T11:18:22.297Z,8.07
2023-03-10T11:20:58.941Z,10.63
2023-03-10T11:23:29.053Z,6.30
2023-03-10T11:26:00.031Z,6.50
2023-03-10T11:28:36.730Z,11.17
2023-03-10T11:31:07.233Z,9.17
2023-03-10T11:33:53.083Z,9.20
2023-03-10T11:36:53.395Z,8.67
2023-03-10T11:39:27.602Z,6.50
2023-03-10T11:42:00.846Z,7.27
2023-03-10T11:44:31.230Z,10.30
2023-03-10T11:47:13.872Z,8.67
2023-03-10T11:49:43.676Z,11.33
2023-03-10T11:52:16.024Z,7.90
2023-03-10T11:54:47.283Z,8.63
2023-03-10T11:57:25.561Z,6.63
2023-03-10T11:59:52.933Z,8.20
2023-03-10T12:02:39.086Z,10.33
2023-03-10T12:05:08.960Z,7.27
2023-03-10T12:07:40.051Z,8.00
2023-03-10T12:10:13.297Z,6.33
2023-03-10T12:12:41.863Z,6.73
2023-03-10T12:15:20.670Z,7.70
2023-03-10T12:17:49.364Z,4.93
2023-03-10T12:20:17.418Z,7.57
2023-03-10T12:22:46.955Z,9.23
2023-03-10T12:25:33.394Z,7.40
2023-03-10T12:28:19.520Z,6.10
2023-03-10T12:30:48.254Z,6.33
2023-03-10T12:33:34.489Z,7.93
2023-03-10T12:36:05.275Z,5.40
2023-03-10T12:38:38.122Z,6.03
2023-03-10T12:41:05.397Z,9.17
2023-03-10T12:43:47.843Z,9.38
2023-03-10T12:46:30.285Z,8.23
2023-03-10T12:49:07.893Z,8.70
2023-03-10T12:51:41.145Z,8.30
2023-03-10T12:54:14.096Z,8.52
2023-03-10T12:56:43.862Z,7.30
2023-03-10T12:59:17.936Z,4.80
2023-03-10T13:01:55.611Z,7.13
2023-03-10T13:04:23.609Z,7.32
2023-03-10T13:06:51.165Z,10.40
2023-03-10T13:09:24.336Z,13.83
2023-03-10T13:11:55.086Z,12.07
2023-03-10T13:14:23.372Z,9.77
2023-03-10T13:16:58.473Z,10.50
2023-03-10T13:19:26.630Z,7.97
2023-03-10T13:21:53.998Z,8.93
2023-03-10T13:24:26.656Z,9.98
2023-03-10T13:27:17.400Z,6.68
2023-03-10T13:29:58.005Z,8.88
2023-03-10T13:32:25.713Z,8.98
2023-03-10T13:34:53.073Z,8.73
2023-03-10T13:37:20.365Z,9.25
2023-03-10T13:39:47.627Z,13.65
2023-03-10T13:42:24.061Z,9.57
2023-03-10T13:44:54.403Z,6.57
2023-03-10T13:47:23.485Z,7.90
2023-03-10T13:49:52.583Z,7.72
2023-03-10T13:52:24.669Z,8.13
2023-03-10T13:54:52.535Z,9.45
2023-03-10T13:57:22.783Z,9.75
2023-03-10T13:59:50.332Z,9.52
2023-03-10T14:02:19.725Z,8.23
2023-03-10T14:04:51.321Z,9.98
2023-03-10T14:07:18.596Z,9.82
2023-03-10T14:09:49.977Z,9.32
2023-03-10T14:12:35.200Z,12.88
2023-03-10T14:15:12.554Z,15.23
2023-03-10T14:17:41.570Z,17.08
2023-03-10T14:20:10.345Z,45.05
2023-03-10T14:22:40.710Z,35.95
2023-03-10T14:25:09.772Z,13.70
2023-03-10T14:27:37.905Z,13.68
2023-03-10T14:30:15.528Z,12.30
2023-03-10T14:32:42.942Z,8.20
2023-03-10T14:35:12.008Z,9.57
2023-03-10T14:37:39.412Z,13.57
2023-03-10T14:40:07.018Z,11.80
2023-03-10T14:42:34.766Z,10.10
2023-03-10T14:45:13.941Z,11.43
2023-03-10T14:47:41.380Z,12.32
2023-03-10T14:50:13.654Z,9.43
2023-03-10T14:52:41.013Z,9.23
2023-03-10T14:55:09.985Z,8.73
2023-03-10T14:57:37.883Z,11.32
2023-03-10T15:00:06.684Z,12.37
2023-03-10T15:02:33.953Z,12.80
2023-03-10T15:05:01.255Z,16.13
2023-03-10T15:07:28.813Z,11.07
2023-03-10T15:10:10.696Z,8.43
2023-03-10T15:12:39.198Z,8.07
2023-03-10T15:15:08.379Z,7.80
2023-03-10T15:17:35.572Z,11.97
2023-03-10T15:20:02.752Z,13.83
2023-03-10T15:22:29.963Z,13.48
2023-03-10T15:24:57.177Z,19.30
2023-03-10T15:27:24.457Z,22.92
2023-03-10T15:29:51.663Z,14.63
2023-03-10T15:32:18.893Z,15.85
2023-03-10T15:34:46.120Z,19.85
2023-03-10T15:37:13.441Z,20.80
2023-03-10T15:39:40.627Z,18.23
2023-03-10T15:42:07.865Z,11.10
2023-03-10T15:44:35.126Z,11.85
2023-03-10T15:47:02.444Z,8.38
2023-03-10T15:49:29.687Z,9.80
2023-03-10T15:51:57.572Z,10.33
2023-03-10T15:54:25.188Z,10.03
2023-03-10T15:56:52.471Z,16.27
2023-03-10T15:59:19.914Z,25.47
2023-03-10T16:01:47.243Z,21.23
2023-03-10T16:04:14.557Z,27.57
2023-03-10T16:06:42.021Z,33.03
2023-03-10T16:09:09.294Z,20.27
2023-03-10T16:11:36.902Z,19.80
2023-03-10T16:14:04.348Z,24.57
2023-03-10T16:16:31.707Z,26.60
2023-03-10T16:18:59.364Z,23.10
2023-03-10T16:21:27.732Z,30.03
2023-03-10T16:23:54.958Z,34.13
2023-03-10T16:26:22.814Z,45.20
2023-03-10T16:28:52.646Z,38.30
2023-03-10T16:31:21.337Z,28.30
2023-03-10T16:33:50.716Z,26.17
2023-03-10T16:36:19.578Z,23.07
2023-03-10T16:38:47.168Z,21.17
2023-03-10T16:41:14.659Z,19.37
2023-03-10T16:43:41.887Z,22.20
2023-03-10T16:46:10.948Z,19.73
2023-03-10T16:48:48.208Z,21.13
2023-03-10T16:51:18.545Z,21.63
2023-03-10T16:53:46.165Z,19.40
2023-03-10T16:56:13.801Z,22.43
2023-03-10T16:58:41.060Z,21.47
2023-03-10T17:01:08.329Z,20.27
2023-03-10T17:03:39.699Z,20.23
2023-03-10T17:06:12.189Z,19.00
2023-03-10T17:08:40.037Z,20.87
2023-03-10T17:11:08.100Z,22.00
2023-03-10T17:13:36.653Z,21.37
2023-03-10T17:16:12.429Z,22.67
2023-03-10T17:18:40.854Z,21.70
2023-03-10T17:21:12.648Z,19.80
2023-03-10T17:23:40.040Z,28.40
2023-03-10T17:26:08.727Z,23.40
2023-03-10T17:28:36.282Z,22.57
2023-03-10T17:31:10.052Z,25.63
2023-03-10T17:33:37.289Z,27.20
2023-03-10T17:36:12.632Z,26.03
2023-03-10T17:38:39.916Z,28.37
2023-03-10T17:41:07.928Z,28.73
2023-03-10T17:43:35.722Z,27.93
2023-03-10T17:46:06.868Z,29.53
2023-03-10T17:48:35.370Z,31.10
2023-03-10T17:51:02.858Z,30.30
2023-03-10T17:53:30.641Z,29.67
2023-03-10T17:55:58.299Z,25.03
2023-03-10T17:58:26.997Z,29.37
2023-03-10T18:00:54.196Z,30.63
2023-03-10T18:03:22.190Z,29.53
2023-03-10T18:05:49.526Z,31.27
2023-03-10T18:08:19.269Z,32.33
2023-03-10T18:10:46.498Z,33.97
2023-03-10T18:13:13.833Z,31.67
2023-03-10T18:15:41.075Z,32.77
2023-03-10T18:18:08.331Z,30.63
2023-03-10T18:20:36.431Z,28.13
2023-03-10T18:23:04.990Z,32.87
2023-03-10T18:25:32.454Z,34.63
2023-03-10T18:27:59.708Z,32.73
2023-03-10T18:30:26.946Z,33.10
2023-03-10T18:32:54.512Z,36.83
2023-03-10T18:35:21.756Z,37.63
2023-03-10T18:37:49.108Z,33.27
2023-03-10T18:40:16.792Z,36.23
2023-03-10T18:42:44.243Z,38.83
2023-03-10T18:45:12.345Z,42.73
2023-03-10T18:47:39.606Z,40.20
2023-03-10T18:50:07.048Z,40.37
2023-03-10T18:52:34.251Z,37.70
2023-03-10T18:55:01.429Z,38.00
2023-03-10T18:57:28.851Z,39.07
2023-03-10T18:59:56.046Z,38.77
2023-03-10T19:02:23.331Z,40.27
2023-03-10T19:04:50.637Z,33.27
2023-03-10T19:07:20.561Z,31.33
2023-03-10T19:09:48.454Z,32.37
2023-03-10T19:12:15.685Z,31.93
2023-03-10T19:14:44.721Z,34.33
2023-03-10T19:17:12.032Z,46.97
2023-03-10T19:19:40.026Z,51.13
2023-03-10T19:22:07.201Z,42.20
2023-03-10T19:24:34.384Z,37.70
2023-03-10T19:27:04.107Z,36.33
2023-03-10T19:29:31.968Z,33.70
2023-03-10T19:31:59.484Z,33.07
2023-03-10T19:34:27.279Z,37.67
2023-03-10T19:36:54.510Z,41.00
2023-03-10T19:39:23.847Z,38.63
2023-03-10T19:41:51.233Z,41.63
2023-03-10T19:44:18.497Z,39.30
2023-03-10T19:46:45.751Z,36.20
2023-03-10T19:49:12.995Z,45.03
2023-03-10T19:51:40.194Z,44.10
2023-03-10T19:54:07.595Z,47.10
2023-03-10T19:56:34.829Z,46.83
2023-03-10T19:59:02.098Z,48.40
2023-03-10T20:01:30.012Z,37.47
2023-03-10T20:03:59.136Z,38.37
2023-03-10T20:06:26.861Z,34.13
2023-03-10T20:08:54.584Z,35.37
2023-03-10T20:11:22.164Z,35.87
2023-03-10T20:13:49.391Z,34.97
2023-03-10T20:16:17.576Z,35.40
2023-03-10T20:18:44.875Z,43.30
2023-03-10T20:21:12.369Z,43.03
2023-03-10T20:23:39.998Z,36.03
2023-03-10T20:26:09.140Z,43.30
2023-03-10T20:28:37.502Z,42.40
2023-03-10T20:31:04.811Z,36.97
2023-03-10T20:33:32.397Z,39.93
2023-03-10T20:36:04.985Z,40.63
2023-03-10T20:38:32.238Z,34.57
2023-03-10T20:40:59.819Z,37.27
2023-03-10T20:43:27.031Z,40.07
2023-03-10T20:45:54.308Z,45.53
2023-03-10T20:48:21.533Z,58.03
2023-03-10T20:50:54.004Z,58.20
2023-03-10T20:53:21.401Z,129.37
2023-03-10T20:55:48.701Z,132.47
2023-03-10T20:58:16.033Z,113.73
2023-03-10T21:00:46.327Z,129.13
2023-03-10T21:03:13.804Z,135.10
2023-03-10T21:05:41.080Z,128.63
2023-03-10T21:08:08.726Z,152.30
2023-03-10T21:10:35.939Z,130.37
2023-03-10T21:13:03.190Z,118.47
2023-03-10T21:15:30.393Z,109.73
2023-03-10T21:17:57.669Z,138.83
2023-03-10T21:20:25.280Z,134.97
2023-03-10T21:22:52.762Z,154.17
2023-03-10T21:25:21.812Z,277.73
2023-03-10T21:27:49.977Z,257.77
2023-03-10T21:30:19.221Z,225.03
2023-03-10T21:32:47.107Z,209.20
2023-03-10T21:35:14.394Z,234.70
2023-03-10T21:37:42.864Z,278.50
2023-03-10T21:40:11.910Z,204.77
2023-03-10T21:43:23.313Z,197.70
2023-03-10T21:46:13.985Z,226.07
2023-03-10T21:48:55.708Z,205.07
2023-03-10T22:00:34.207Z,81.53
2023-03-10T22:03:07.891Z,63.33
2023-03-10T22:09:19.168Z,87.40
2023-03-10T22:14:48.008Z,80.27
2023-03-10T22:17:19.831Z,67.87
2023-03-10T22:19:51.244Z,60.57
2023-03-10T22:28:31.096Z,40.77
2023-03-10T22:31:15.531Z,38.57
2023-03-10T22:33:46.419Z,28.27
2023-03-10T22:36:26.507Z,25.23
2023-03-10T22:39:17.422Z,25.47
2023-03-10T22:42:27.451Z,22.07
2023-03-10T22:54:28.575Z,16.00
2023-03-10T22:56:55.825Z,17.00
2023-03-10T22:59:23.072Z,18.93
2023-03-10T23:01:50.333Z,18.60
2023-03-10T23:04:17.578Z,12.43
2023-03-10T23:06:45.940Z,11.03
2023-03-10T23:09:13.535Z,12.10
2023-03-10T23:11:40.758Z,11.60
2023-03-10T23:14:07.990Z,13.97
2023-03-10T23:16:36.631Z,13.73
2023-03-10T23:19:07.220Z,16.07
2023-03-10T23:21:35.789Z,21.73
2023-03-10T23:24:03.042Z,16.67
2023-03-10T23:26:31.430Z,20.57
2023-03-10T23:28:58.679Z,20.90
2023-03-10T23:31:26.016Z,18.73
2023-03-10T23:33:53.310Z,18.23
2023-03-10T23:36:20.479Z,16.37
2023-03-10T23:38:47.762Z,16.23
2023-03-10T23:41:14.989Z,19.83
2023-03-10T23:43:42.327Z,20.43
2023-03-10T23:46:09.737Z,16.03
2023-03-10T23:48:40.146Z,15.23
2023-03-10T23:51:12.802Z,15.73
2023-03-10T23:53:42.715Z,17.67
2023-03-10T23:56:10.846Z,16.67
2023-03-10T23:58:38.168Z,18.57
